WetterOnline ( http://www.wetteronline.de )

Wetter aktuell Walldorf

Aktuelles Wetter: Mannheim (100m)

6-stündlich | Neueste Meldungen
Ortszeit Temperatur Wetter
Sa, 20.10. 8:00 7.8° C Nebel
Sa, 20.10. 2:00 11.1° C bewölkt
Fr, 19.10. 20:00 15.3° C wolkenlos
Fr, 19.10. 14:00 18.4° C leicht bewölkt
Fr, 19.10. 8:00 8.5° C leicht bewölkt
Fr, 19.10. 2:00 11.6° C wolkenlos
Do, 18.10. 20:00 16.6° C wolkenlos
Do, 18.10. 14:00 21.6° C fast wolkenlos
Ortszeit Temperatur Wetter
Sa, 20.10. 11:00 14.0° C wolkenlos
Sa, 20.10. 10:50 14.0° C wolkenlos
Sa, 20.10. 10:40 13.6° C wolkenlos
Sa, 20.10. 10:30 12.5° C fast wolkenlos
Sa, 20.10. 10:20 12.5° C fast wolkenlos
Sa, 20.10. 10:10 12.2° C leicht bewölkt
Sa, 20.10. 10:00 11.6° C fast wolkenlos
Sa, 20.10. 9:30 10.2° C wolkig
Sa, 20.10. 9:00 8.5° C leicht bewölkt
Sa, 20.10. 8:30 8.2° C wolkenlos
Sa, 20.10. 8:00 7.8° C Nebel
Ortszeit Relative Feuchte Sichtweite
Sa, 20.10. 8:00 99% 100 m
Sa, 20.10. 2:00 87% 5.0 km
Fr, 19.10. 20:00 71% 7 km
Fr, 19.10. 14:00 58% 9 km
Fr, 19.10. 8:00 95% 6 km
Fr, 19.10. 2:00 87% 6 km
Do, 18.10. 20:00 71% 9 km
Do, 18.10. 14:00 52% 17 km
Ortszeit Relative Feuchte Sichtweite
Sa, 20.10. 11:00 75% 8 km
Sa, 20.10. 10:50 75% -
Sa, 20.10. 10:40 77% -
Sa, 20.10. 10:30 80% 7 km
Sa, 20.10. 10:20 80% -
Sa, 20.10. 10:10 84% -
Sa, 20.10. 10:00 87% 5.0 km
Sa, 20.10. 9:30 88% 4.4 km
Sa, 20.10. 9:00 99% 2.8 km
Sa, 20.10. 8:30 100% 1.0 km
Sa, 20.10. 8:00 99% 100 m
Ortszeit Niederschlagsmenge Niederschlagsart
Sa, 20.10. 8:00 0.0 l/m2 in 12 Std. -
Sa, 20.10. 2:00 0.0 l/m2 in 6 Std. -
Fr, 19.10. 20:00 0.0 l/m2 in 12 Std. -
Fr, 19.10. 14:00 0.0 l/m2 in 6 Std. -
Fr, 19.10. 8:00 0.0 l/m2 in 12 Std. -
Fr, 19.10. 2:00 0.0 l/m2 in 6 Std. -
Do, 18.10. 20:00 0.0 l/m2 in 12 Std. -
Do, 18.10. 14:00 0.0 l/m2 in 6 Std. -
Ortszeit Niederschlagsmenge Niederschlagsart
Sa, 20.10. 11:00 0.0 l/m2 in 1 Std. -
Sa, 20.10. 10:50 keine Meldung -
Sa, 20.10. 10:40 keine Meldung -
Sa, 20.10. 10:30 0.0 l/m2 in 1 Std. -
Sa, 20.10. 10:20 keine Meldung -
Sa, 20.10. 10:10 keine Meldung -
Sa, 20.10. 10:00 0.0 l/m2 in 1 Std. -
Sa, 20.10. 9:30 0.0 l/m2 in 1 Std. -
Sa, 20.10. 9:00 0.0 l/m2 in 1 Std. -
Sa, 20.10. 8:30 0.0 l/m2 in 1 Std. -
Sa, 20.10. 8:00 0.0 l/m2 in 1 Std. -
Ortszeit Stärke Spitze Richtung
km/h Bft. km/h Grad Sektor
Sa, 20.10. 8:00 2 1 11 290° W
Sa, 20.10. 2:00 2 1 11 340° N
Fr, 19.10. 20:00 7 2 18 60° NO
Fr, 19.10. 14:00 7 2 13 340° N
Fr, 19.10. 8:00 9 2 17 350° N
Fr, 19.10. 2:00 11 2 22 340° N
Do, 18.10. 20:00 13 3 41 360° N
Do, 18.10. 14:00 11 2 22 330° NW
Ortszeit Stärke Spitze Richtung
km/h Bft. km/h Grad Sektor
Sa, 20.10. 11:00 9 2 15 350° N
Sa, 20.10. 10:50 9 2 - 350° N
Sa, 20.10. 10:40 7 2 - 350° N
Sa, 20.10. 10:30 6 1 11 350° N
Sa, 20.10. 10:20 6 1 - 350° N
Sa, 20.10. 10:10 7 2 - 340° N
Sa, 20.10. 10:00 6 1 7 330° NW
Sa, 20.10. 9:30 2 1 4 290° W
Sa, 20.10. 9:00 0 0 4 - -
Sa, 20.10. 8:30 2 1 4 330° NW
Sa, 20.10. 8:00 2 1 7 290° W
Ortszeit Untergrenze Bedeckung Gattung
total tief tief mittel hoch
Sa, 20.10. 8:00 - 0/8 0/8 - - -
Sa, 20.10. 2:00 1170 m 8/8 7/8 - - -
Fr, 19.10. 20:00 - 0/8 0/8 - - -
Fr, 19.10. 14:00 8400 m 5/8 0/8 - - -
Fr, 19.10. 8:00 1800 m 3/8 1/8 - - -
Fr, 19.10. 2:00 - 0/8 0/8 - - -
Do, 18.10. 20:00 - 0/8 0/8 - - -
Do, 18.10. 14:00 10500 m 2/8 0/8 - - -
Ortszeit Bedeckungsgrad in Achtel und Wolkenuntergrenze
Sa, 20.10. 11:00 keine Wolken
Sa, 20.10. 10:50 keine Wolken
Sa, 20.10. 10:40 keine Wolken
Sa, 20.10. 10:30 1(8100m) 1(8100m)
Sa, 20.10. 10:20 1(8100m)
Sa, 20.10. 10:10 1(1470m) 2(8100m)
Sa, 20.10. 10:00 1(1410m)
Sa, 20.10. 9:30 3(1380m) 9 9
Sa, 20.10. 9:00 2(1470m)
Sa, 20.10. 8:30 9 9 9
Sa, 20.10. 8:00 keine Wolken
Ortszeit Luftdruck NN (hPa) Tendenz (hPa in 3 Std.)
Sa, 20.10. 8:00 1027 + 1,1
Sa, 20.10. 2:00 1025 + 0,2
Fr, 19.10. 20:00 1023 + 1,2
Fr, 19.10. 14:00 1023 - 0,6
Fr, 19.10. 8:00 1023 + 0,8
Fr, 19.10. 2:00 1022 0,0
Do, 18.10. 20:00 1021 + 1,4
Do, 18.10. 14:00 1020 - 0,9
Ortszeit Luftdruck NN (hPa) Tendenz (hPa in 3 Std.)
Sa, 20.10. 11:00 1029 + 2,4
Sa, 20.10. 10:50 1029 keine Meldung
Sa, 20.10. 10:40 1029 keine Meldung
Sa, 20.10. 10:30 1029 + 2,1
Sa, 20.10. 10:20 1029 keine Meldung
Sa, 20.10. 10:10 1029 keine Meldung
Sa, 20.10. 10:00 1029 + 2,1
Sa, 20.10. 9:30 1028 + 1,5
Sa, 20.10. 9:00 1028 + 1,4
Sa, 20.10. 8:30 1028 + 1,5
Sa, 20.10. 8:00 1027 + 1,1
Ortszeit Schneehöhe (cm)
Sa, 20.10. 8:00 0
Sa, 20.10. 2:00 0
Fr, 19.10. 20:00 0
Fr, 19.10. 14:00 0
Fr, 19.10. 8:00 0
Fr, 19.10. 2:00 0
Do, 18.10. 20:00 0
Do, 18.10. 14:00 0
Ortszeit Schneehöhe (cm)
Sa, 20.10. 11:00 0
Sa, 20.10. 10:50 0
Sa, 20.10. 10:40 0
Sa, 20.10. 10:30 0
Sa, 20.10. 10:20 0
Sa, 20.10. 10:10 0
Sa, 20.10. 10:00 0
Sa, 20.10. 9:30 0
Sa, 20.10. 9:00 0
Sa, 20.10. 8:30 0
Sa, 20.10. 8:00 0
Link zu dieser Seite / Seite empfehlen

Das Wetter in ...